createdAt,value
2024-02-27T00:00:29.950Z,169.13
2024-02-27T00:01:29.991Z,168.16
2024-02-27T00:02:30.345Z,168.37
2024-02-27T00:03:29.967Z,168.14
2024-02-27T00:04:30.028Z,168.02
2024-02-27T00:05:30.028Z,168.59
2024-02-27T00:06:30.036Z,169.05
2024-02-27T00:07:29.981Z,170.53
2024-02-27T00:08:29.946Z,171.01
2024-02-27T00:09:29.956Z,171.51
2024-02-27T00:10:29.969Z,172.37
2024-02-27T00:11:29.965Z,172.98
2024-02-27T00:12:30.338Z,173.37
2024-02-27T00:13:29.950Z,173.32
2024-02-27T00:14:29.970Z,173.05
2024-02-27T00:15:29.991Z,172.36
2024-02-27T00:16:29.958Z,172.36
2024-02-27T00:17:30.007Z,172.85
2024-02-27T00:18:30.177Z,173.10
2024-02-27T00:19:30.140Z,173.10
2024-02-27T00:20:30.048Z,173.48
2024-02-27T00:21:30.041Z,173.70
2024-02-27T00:22:30.025Z,172.83
2024-02-27T00:23:29.985Z,172.83
2024-02-27T00:24:30.101Z,172.57
2024-02-27T00:25:29.979Z,173.69
2024-02-27T00:26:29.995Z,174.48
2024-02-27T00:27:30.088Z,175.64
2024-02-27T00:28:29.984Z,174.13
2024-02-27T00:29:30.041Z,174.36
2024-02-27T00:30:30.060Z,174.44
2024-02-27T00:31:30.061Z,175.05
2024-02-27T00:32:30.338Z,175.21
2024-02-27T00:33:30.034Z,175.70
2024-02-27T00:34:30.072Z,176.61
2024-02-27T00:35:30.036Z,177.68
2024-02-27T00:36:30.230Z,177.87
2024-02-27T00:37:30.328Z,177.76
2024-02-27T00:38:30.028Z,177.70
2024-02-27T00:39:30.129Z,178.16
2024-02-27T00:40:30.029Z,177.65
2024-02-27T00:41:30.000Z,178.03
2024-02-27T00:42:30.438Z,177.90
2024-02-27T00:43:30.000Z,178.12
2024-02-27T00:44:30.041Z,178.12
2024-02-27T00:45:30.019Z,179.60
2024-02-27T00:46:30.057Z,182.68
2024-02-27T00:47:30.356Z,183.73
2024-02-27T00:48:30.149Z,185.06
2024-02-27T00:49:30.099Z,185.34
2024-02-27T00:50:30.048Z,186.41
2024-02-27T00:51:30.058Z,186.61
2024-02-27T00:52:30.149Z,186.78
2024-02-27T00:53:30.013Z,186.33
2024-02-27T00:54:30.094Z,186.68
2024-02-27T00:55:30.101Z,186.54
2024-02-27T00:56:30.102Z,186.83
2024-02-27T00:57:30.182Z,186.81
2024-02-27T00:58:30.182Z,186.91
2024-02-27T00:59:30.209Z,186.67
2024-02-27T01:00:30.224Z,185.41
2024-02-27T01:01:30.332Z,184.16
2024-02-27T01:02:30.353Z,183.36
2024-02-27T01:03:30.458Z,182.74
2024-02-27T01:04:30.478Z,181.19
2024-02-27T01:05:30.600Z,179.77
2024-02-27T01:06:30.592Z,179.18
2024-02-27T01:07:30.851Z,178.36
2024-02-27T01:08:30.725Z,177.46
2024-02-27T01:09:30.718Z,176.24
2024-02-27T01:10:30.750Z,175.54
2024-02-27T01:11:30.791Z,175.73
2024-02-27T01:12:30.894Z,174.04
2024-02-27T01:13:30.865Z,173.91
2024-02-27T01:14:30.941Z,175.09
2024-02-27T01:15:31.035Z,173.90
2024-02-27T01:16:31.014Z,172.97
2024-02-27T01:17:31.090Z,171.99
2024-02-27T01:18:31.212Z,171.85
2024-02-27T01:19:31.224Z,170.62
2024-02-27T01:20:31.154Z,170.14
2024-02-27T01:21:31.257Z,170.35
2024-02-27T01:22:31.354Z,171.56
2024-02-27T01:23:31.308Z,172.55
2024-02-27T01:24:31.453Z,173.17
2024-02-27T01:25:31.413Z,174.62
2024-02-27T01:26:31.487Z,176.56
2024-02-27T01:27:31.613Z,176.63
2024-02-27T01:28:31.529Z,177.25
2024-02-27T01:29:31.572Z,175.64
2024-02-27T01:30:31.687Z,176.86
2024-02-27T01:31:31.704Z,178.56
2024-02-27T01:32:31.793Z,179.07
2024-02-27T01:33:31.893Z,180.63
2024-02-27T01:34:31.978Z,180.09
2024-02-27T01:35:31.893Z,181.27
2024-02-27T01:36:31.933Z,180.99
2024-02-27T01:37:31.957Z,181.04
2024-02-27T01:38:32.003Z,179.59
2024-02-27T01:39:32.127Z,175.86
2024-02-27T01:40:32.157Z,173.70
2024-02-27T01:41:32.112Z,171.79
2024-02-27T01:42:32.376Z,169.82
2024-02-27T01:43:32.222Z,167.73
2024-02-27T01:44:32.245Z,166.26
2024-02-27T01:45:32.394Z,164.98
2024-02-27T01:46:32.287Z,164.79
2024-02-27T01:47:32.378Z,164.48
2024-02-27T01:48:33.402Z,165.20
2024-02-27T01:49:32.503Z,166.45
2024-02-27T01:50:32.405Z,167.73
2024-02-27T01:51:32.482Z,168.48
2024-02-27T01:52:32.399Z,169.57
2024-02-27T01:53:32.417Z,169.96
2024-02-27T01:54:32.570Z,171.45
2024-02-27T01:55:32.499Z,171.11
2024-02-27T01:56:32.570Z,169.86
2024-02-27T01:57:32.659Z,168.64
2024-02-27T01:58:32.553Z,170.31
2024-02-27T01:59:32.588Z,170.76
2024-02-27T02:00:32.628Z,171.15
2024-02-27T02:01:32.716Z,171.16
2024-02-27T02:02:32.679Z,171.87
2024-02-27T02:03:32.708Z,172.83
2024-02-27T02:04:32.909Z,173.56
2024-02-27T02:05:32.707Z,174.48
2024-02-27T02:06:32.837Z,175.61
2024-02-27T02:07:32.785Z,176.38
2024-02-27T02:08:32.784Z,177.38
2024-02-27T02:09:32.906Z,177.53
2024-02-27T02:10:32.839Z,178.40
2024-02-27T02:11:32.918Z,178.02
2024-02-27T02:12:33.030Z,178.03
2024-02-27T02:13:32.980Z,178.52
2024-02-27T02:14:32.993Z,178.43
2024-02-27T02:15:33.113Z,178.25
2024-02-27T02:16:33.118Z,177.80
2024-02-27T02:17:33.340Z,178.04
2024-02-27T02:18:33.402Z,177.91
2024-02-27T02:19:33.347Z,179.62
2024-02-27T02:20:33.285Z,180.01
2024-02-27T02:21:33.346Z,180.60
2024-02-27T02:22:33.861Z,181.08
2024-02-27T02:23:33.407Z,180.91
2024-02-27T02:24:33.461Z,181.29
2024-02-27T02:25:33.463Z,180.82
2024-02-27T02:26:33.500Z,179.88
2024-02-27T02:27:33.910Z,179.73
2024-02-27T02:28:33.604Z,179.25
2024-02-27T02:29:33.646Z,179.53
2024-02-27T02:30:33.790Z,180.09
2024-02-27T02:31:33.731Z,180.37
2024-02-27T02:32:33.819Z,180.18
2024-02-27T02:33:33.916Z,179.45
2024-02-27T02:34:33.928Z,178.86
2024-02-27T02:35:33.860Z,177.64
2024-02-27T02:36:34.022Z,177.68
2024-02-27T02:37:33.960Z,178.43
2024-02-27T02:38:33.990Z,177.99
2024-02-27T02:39:34.094Z,178.71
2024-02-27T02:40:34.032Z,178.89
2024-02-27T02:41:34.081Z,179.73
2024-02-27T02:42:34.398Z,178.94
2024-02-27T02:43:34.153Z,177.54
2024-02-27T02:44:34.281Z,176.73
2024-02-27T02:45:34.244Z,173.80
2024-02-27T02:46:34.266Z,171.62
2024-02-27T02:47:34.316Z,170.02
2024-02-27T02:48:34.479Z,169.42
2024-02-27T02:49:35.654Z,170.39
2024-02-27T02:50:34.403Z,171.95
2024-02-27T02:51:34.467Z,172.80
2024-02-27T02:52:34.425Z,174.54
2024-02-27T02:53:34.373Z,174.57
2024-02-27T02:54:34.436Z,175.07
2024-02-27T02:55:34.387Z,174.87
2024-02-27T02:56:34.404Z,175.33
2024-02-27T02:57:34.440Z,175.89
2024-02-27T02:58:34.417Z,176.55
2024-02-27T02:59:34.365Z,176.93
2024-02-27T03:00:34.463Z,178.96
2024-02-27T03:01:34.448Z,179.18
2024-02-27T03:02:34.384Z,179.85
2024-02-27T03:03:34.548Z,178.67
2024-02-27T03:04:34.444Z,177.77
2024-02-27T03:05:34.422Z,177.04
2024-02-27T03:06:34.540Z,176.72
2024-02-27T03:07:34.413Z,176.62
2024-02-27T03:08:34.434Z,176.95
2024-02-27T03:09:34.419Z,176.25
2024-02-27T03:10:34.407Z,175.75
2024-02-27T03:11:34.455Z,176.45
2024-02-27T03:12:34.929Z,176.19
2024-02-27T03:13:34.406Z,176.22
2024-02-27T03:14:34.430Z,175.52
2024-02-27T03:15:34.494Z,174.48
2024-02-27T03:16:34.525Z,175.15
2024-02-27T03:17:34.510Z,173.37
2024-02-27T03:18:34.517Z,174.59
2024-02-27T03:19:34.530Z,175.75
2024-02-27T03:20:34.415Z,176.47
2024-02-27T03:21:34.498Z,178.39
2024-02-27T03:22:34.405Z,180.21
2024-02-27T03:23:34.461Z,181.83
2024-02-27T03:24:34.553Z,182.49
2024-02-27T03:25:34.463Z,183.40
2024-02-27T03:26:34.450Z,183.93
2024-02-27T03:27:34.544Z,184.88
2024-02-27T03:28:34.458Z,184.30
2024-02-27T03:29:34.481Z,184.18
2024-02-27T03:30:34.509Z,184.95
2024-02-27T03:31:34.451Z,185.47
2024-02-27T03:32:34.627Z,185.40
2024-02-27T03:33:34.669Z,185.25
2024-02-27T03:34:34.686Z,183.65
2024-02-27T03:35:34.476Z,183.60
2024-02-27T03:36:34.494Z,182.46
2024-02-27T03:37:34.439Z,182.86
2024-02-27T03:38:34.511Z,183.67
2024-02-27T03:39:34.519Z,184.12
2024-02-27T03:40:34.470Z,184.39
2024-02-27T03:41:34.489Z,184.82
2024-02-27T03:42:34.562Z,184.89
2024-02-27T03:43:34.503Z,184.40
2024-02-27T03:44:34.517Z,183.24
2024-02-27T03:45:34.538Z,182.69
2024-02-27T03:46:34.475Z,181.28
2024-02-27T03:47:34.556Z,180.02
2024-02-27T03:48:34.630Z,179.16
2024-02-27T03:49:34.665Z,177.58
2024-02-27T03:50:34.480Z,176.06
2024-02-27T03:51:34.589Z,176.13
2024-02-27T03:52:34.526Z,175.70
2024-02-27T03:53:34.565Z,176.30
2024-02-27T03:54:34.628Z,176.55
2024-02-27T03:55:34.578Z,177.76
2024-02-27T03:56:34.596Z,178.36
2024-02-27T03:57:34.813Z,179.24
2024-02-27T03:58:34.651Z,180.61
2024-02-27T03:59:34.690Z,181.11
2024-02-27T04:00:34.813Z,181.30
2024-02-27T04:01:34.752Z,181.22
2024-02-27T04:02:34.779Z,182.39
2024-02-27T04:03:34.864Z,184.82
2024-02-27T04:04:35.093Z,187.61
2024-02-27T04:05:34.974Z,188.92
2024-02-27T04:06:34.962Z,190.95
2024-02-27T04:07:35.384Z,191.37
2024-02-27T04:08:34.891Z,192.99
2024-02-27T04:09:34.990Z,195.73
2024-02-27T04:10:35.051Z,196.68
2024-02-27T04:11:35.065Z,198.29
2024-02-27T04:12:35.179Z,198.83
2024-02-27T04:13:36.338Z,200.00
2024-02-27T04:14:35.199Z,199.57
2024-02-27T04:15:35.236Z,200.19
2024-02-27T04:16:35.288Z,199.78
2024-02-27T04:18:35.408Z,196.41
2024-02-27T04:19:35.524Z,194.51
2024-02-27T04:20:35.481Z,193.99
2024-02-27T04:21:35.425Z,195.26
2024-02-27T04:22:35.472Z,198.14
2024-02-27T04:23:35.474Z,200.69
2024-02-27T04:24:35.514Z,200.66
2024-02-27T04:25:35.486Z,199.46
2024-02-27T04:26:35.531Z,200.00
2024-02-27T04:27:35.661Z,199.68
2024-02-27T04:28:35.714Z,199.74
2024-02-27T04:29:35.597Z,199.91
2024-02-27T04:30:35.684Z,199.15
2024-02-27T04:31:35.655Z,199.32
2024-02-27T04:32:35.725Z,199.63
2024-02-27T04:33:35.823Z,200.65
2024-02-27T04:34:35.923Z,200.00
2024-02-27T04:35:35.778Z,200.00
2024-02-27T04:36:35.952Z,200.00
2024-02-27T04:37:35.896Z,200.05
2024-02-27T04:38:35.863Z,200.28
2024-02-27T04:39:35.918Z,199.87
2024-02-27T04:40:35.922Z,200.00
2024-02-27T04:41:35.974Z,199.91
2024-02-27T04:42:36.039Z,199.64
2024-02-27T04:43:37.845Z,199.92
2024-02-27T04:44:36.058Z,199.66
2024-02-27T04:45:36.141Z,200.00
2024-02-27T04:46:36.138Z,199.43
2024-02-27T04:47:36.208Z,198.80
2024-02-27T04:48:36.442Z,198.45
2024-02-27T04:49:36.411Z,197.28
2024-02-27T04:50:36.345Z,197.76
2024-02-27T04:51:36.400Z,196.73
2024-02-27T04:52:37.005Z,196.98
2024-02-27T04:53:36.477Z,196.62
2024-02-27T04:54:36.580Z,198.46
2024-02-27T04:55:36.558Z,199.16
2024-02-27T04:56:36.608Z,200.25
2024-02-27T04:57:36.698Z,199.46
2024-02-27T04:58:36.724Z,199.29
2024-02-27T04:59:36.762Z,199.25
2024-02-27T05:00:36.902Z,199.11
2024-02-27T05:01:36.878Z,199.28
2024-02-27T05:02:36.935Z,199.86
2024-02-27T05:03:37.439Z,199.54
2024-02-27T05:04:37.076Z,199.61
2024-02-27T05:05:37.106Z,199.93
2024-02-27T05:06:37.177Z,200.07
2024-02-27T05:07:37.178Z,200.06
2024-02-27T05:08:37.302Z,198.63
2024-02-27T05:09:37.343Z,200.00
2024-02-27T05:10:37.303Z,199.89
2024-02-27T05:11:37.316Z,199.67
2024-02-27T05:12:37.430Z,200.00
2024-02-27T05:13:37.426Z,199.20
2024-02-27T05:14:37.479Z,199.89
2024-02-27T05:15:37.810Z,199.57
2024-02-27T05:16:37.551Z,199.62
2024-02-27T05:17:37.645Z,199.91
2024-02-27T05:18:37.794Z,199.70
2024-02-27T05:19:37.763Z,199.54
2024-02-27T05:20:37.739Z,199.48
2024-02-27T05:21:37.771Z,199.84
2024-02-27T05:22:37.832Z,200.20
2024-02-27T05:23:37.931Z,199.88
2024-02-27T05:24:38.144Z,200.12
2024-02-27T05:25:37.970Z,200.00
2024-02-27T05:26:37.989Z,199.92
2024-02-27T05:27:38.204Z,199.65
2024-02-27T05:28:38.117Z,199.69
2024-02-27T05:29:38.164Z,199.79
2024-02-27T05:30:38.252Z,199.37
2024-02-27T05:31:38.243Z,197.83
2024-02-27T05:32:38.321Z,196.20
2024-02-27T05:33:38.548Z,195.36
2024-02-27T05:34:38.524Z,194.25
2024-02-27T05:35:46.079Z,50.00
2024-02-27T05:36:46.099Z,50.00
2024-02-27T05:37:46.160Z,50.00
2024-02-27T05:38:46.105Z,50.00
2024-02-27T05:39:46.171Z,50.00
2024-02-27T05:40:46.073Z,51.96
2024-02-27T05:41:46.122Z,54.00
2024-02-27T05:42:46.169Z,51.15
2024-02-27T05:43:46.098Z,51.47
2024-02-27T05:44:46.101Z,50.00
2024-02-27T05:45:46.126Z,50.00
2024-02-27T05:46:46.104Z,49.96
2024-02-27T05:47:46.142Z,50.86
2024-02-27T05:48:46.242Z,51.50
2024-02-27T05:49:46.165Z,50.00
2024-02-27T05:50:46.116Z,50.00
2024-02-27T05:51:46.184Z,51.17
2024-02-27T05:52:46.119Z,51.52
2024-02-27T05:53:46.133Z,50.42
2024-02-27T05:54:46.253Z,50.31
2024-02-27T05:55:46.199Z,50.39
2024-02-27T05:56:46.143Z,50.69
2024-02-27T05:57:46.191Z,51.92
2024-02-27T05:58:46.138Z,59.42
2024-02-27T05:59:46.147Z,66.21
2024-02-27T06:00:46.182Z,78.44
2024-02-27T06:01:46.148Z,84.15
2024-02-27T06:02:46.200Z,93.85
2024-02-27T06:04:46.176Z,103.88
2024-02-27T06:05:46.155Z,107.93
2024-02-27T06:06:46.255Z,108.06
2024-02-27T06:07:46.230Z,108.84
2024-02-27T06:08:46.140Z,109.46
2024-02-27T06:09:46.246Z,109.41
2024-02-27T06:10:46.186Z,110.26
2024-02-27T06:11:46.234Z,111.52
2024-02-27T06:12:46.197Z,115.05
2024-02-27T06:13:46.188Z,117.43
2024-02-27T06:14:46.191Z,122.36
2024-02-27T06:15:46.226Z,124.27
2024-02-27T06:16:46.199Z,126.23
2024-02-27T06:17:46.223Z,127.55
2024-02-27T06:18:46.216Z,130.60
2024-02-27T06:19:46.248Z,133.64
2024-02-27T06:20:46.191Z,133.35
2024-02-27T06:21:46.228Z,134.48
2024-02-27T06:22:46.208Z,132.76
2024-02-27T06:23:46.734Z,132.99
2024-02-27T06:24:46.320Z,135.84
2024-02-27T06:25:46.270Z,138.34
2024-02-27T06:26:46.177Z,140.34
2024-02-27T06:27:46.340Z,141.02
2024-02-27T06:28:46.209Z,143.34
2024-02-27T06:29:46.260Z,144.15
2024-02-27T06:30:46.256Z,140.35
2024-02-27T06:31:46.208Z,142.73
2024-02-27T06:32:46.237Z,142.86
2024-02-27T06:33:46.409Z,147.04
2024-02-27T06:34:46.335Z,149.45
2024-02-27T06:35:46.232Z,151.64
2024-02-27T06:36:46.240Z,153.50
2024-02-27T06:37:46.222Z,156.25
2024-02-27T06:38:46.203Z,159.23
2024-02-27T06:39:46.266Z,160.33
2024-02-27T06:40:46.258Z,158.06
2024-02-27T06:41:46.255Z,159.50
2024-02-27T06:42:46.248Z,163.23
2024-02-27T06:43:46.779Z,163.07
2024-02-27T06:44:46.255Z,165.85
2024-02-27T06:45:46.245Z,166.04
2024-02-27T06:46:46.222Z,167.75
2024-02-27T06:47:46.325Z,168.50
2024-02-27T06:48:46.324Z,165.75
2024-02-27T06:49:46.452Z,164.95
2024-02-27T06:50:47.067Z,167.60
2024-02-27T06:51:46.253Z,167.67
2024-02-27T06:52:46.243Z,172.13
2024-02-27T06:53:46.715Z,175.41
2024-02-27T06:54:46.272Z,172.78
2024-02-27T06:55:46.322Z,174.93
2024-02-27T06:56:46.283Z,175.17
2024-02-27T06:57:46.863Z,173.34
2024-02-27T06:58:46.693Z,174.18
2024-02-27T06:59:46.363Z,177.12
2024-02-27T07:00:46.494Z,177.25
2024-02-27T07:01:46.366Z,180.57
2024-02-27T07:02:48.416Z,178.61
2024-02-27T07:03:46.329Z,180.25
2024-02-27T07:04:46.333Z,174.72
2024-02-27T07:05:53.045Z,173.86
2024-02-27T07:06:47.457Z,174.08
2024-02-27T07:07:46.297Z,174.06
2024-02-27T07:08:46.294Z,172.83
2024-02-27T07:09:46.324Z,169.18
2024-02-27T07:10:46.304Z,165.48
2024-02-27T07:11:46.327Z,165.84
2024-02-27T07:12:46.290Z,163.85
2024-02-27T07:13:46.307Z,162.93
2024-02-27T07:14:46.353Z,159.83
2024-02-27T07:15:46.402Z,158.66
2024-02-27T07:16:46.300Z,158.40
2024-02-27T07:17:46.426Z,160.97
2024-02-27T07:18:46.754Z,161.94
2024-02-27T07:19:46.306Z,167.74
2024-02-27T07:20:46.422Z,169.76
2024-02-27T07:21:46.334Z,171.55
2024-02-27T07:22:46.330Z,177.05
2024-02-27T07:23:46.717Z,184.31
2024-02-27T07:24:46.354Z,188.09
2024-02-27T07:25:46.312Z,188.48
2024-02-27T07:26:46.311Z,188.35
2024-02-27T07:27:46.367Z,187.58
2024-02-27T07:28:46.333Z,193.78
2024-02-27T07:29:46.406Z,194.15
2024-02-27T07:30:46.449Z,194.98
2024-02-27T07:31:46.469Z,195.70
2024-02-27T07:32:46.459Z,197.90
2024-02-27T07:33:46.764Z,200.00
2024-02-27T07:34:46.537Z,200.00
2024-02-27T07:35:46.662Z,199.86
2024-02-27T07:36:46.521Z,198.56
2024-02-27T07:37:46.497Z,200.00
2024-02-27T07:38:46.720Z,197.66
2024-02-27T07:39:46.667Z,199.06
2024-02-27T07:40:46.580Z,198.25
2024-02-27T07:41:46.569Z,198.50
2024-02-27T07:42:46.604Z,197.39
2024-02-27T07:43:46.576Z,197.65
2024-02-27T07:44:46.589Z,196.62
2024-02-27T07:45:46.679Z,198.41
2024-02-27T07:46:46.656Z,197.66
2024-02-27T07:47:46.762Z,197.70
2024-02-27T07:48:46.692Z,197.78
2024-02-27T07:49:46.631Z,197.66
2024-02-27T07:50:46.690Z,195.82
2024-02-27T07:51:46.742Z,192.24
2024-02-27T07:52:46.696Z,192.95
2024-02-27T07:53:47.219Z,189.32
2024-02-27T07:54:46.767Z,183.98
2024-02-27T07:55:46.783Z,179.91
2024-02-27T07:56:46.836Z,177.45
2024-02-27T07:57:46.913Z,177.27
2024-02-27T07:58:47.201Z,179.02
2024-02-27T07:59:47.060Z,180.32
2024-02-27T08:00:47.197Z,179.95
2024-02-27T08:01:47.197Z,181.91
2024-02-27T08:02:47.201Z,180.79
2024-02-27T08:03:47.472Z,182.41
2024-02-27T08:04:47.333Z,183.54
2024-02-27T08:05:47.427Z,187.20
2024-02-27T08:06:47.573Z,187.91
2024-02-27T08:07:47.735Z,184.46
2024-02-27T08:08:47.694Z,183.61
2024-02-27T08:09:47.725Z,184.94
2024-02-27T08:10:47.856Z,182.95
2024-02-27T08:11:47.835Z,180.93
2024-02-27T08:12:47.885Z,182.57
2024-02-27T08:13:48.222Z,184.76
2024-02-27T08:14:48.041Z,186.05
2024-02-27T08:15:48.190Z,186.07
2024-02-27T08:16:48.148Z,185.70
2024-02-27T08:17:48.272Z,186.73
2024-02-27T08:18:48.366Z,189.86
2024-02-27T08:19:48.584Z,189.39
2024-02-27T08:20:48.433Z,190.15
2024-02-27T08:21:48.536Z,189.80
2024-02-27T08:22:48.585Z,191.76
2024-02-27T08:23:48.682Z,191.37
2024-02-27T08:24:48.724Z,190.45
2024-02-27T08:25:48.802Z,189.87
2024-02-27T08:26:50.744Z,191.36
2024-02-27T08:27:49.128Z,192.00
2024-02-27T08:28:48.881Z,187.75
2024-02-27T08:29:48.864Z,186.13
2024-02-27T08:30:49.092Z,182.91
2024-02-27T08:31:49.033Z,181.28
2024-02-27T08:32:50.754Z,182.42
2024-02-27T08:33:49.388Z,175.35
2024-02-27T08:34:48.971Z,171.28
2024-02-27T08:35:48.985Z,167.57
2024-02-27T08:36:48.961Z,162.21
2024-02-27T08:37:48.908Z,161.99
2024-02-27T08:38:48.897Z,166.14
2024-02-27T08:39:48.885Z,162.02
2024-02-27T08:40:48.900Z,160.43
2024-02-27T08:41:48.993Z,158.41
2024-02-27T08:42:48.979Z,155.40
2024-02-27T08:43:49.239Z,156.12
2024-02-27T08:44:49.068Z,154.35
2024-02-27T08:45:49.122Z,155.47
2024-02-27T08:46:49.121Z,156.47
2024-02-27T08:47:49.184Z,157.26
2024-02-27T08:48:49.466Z,153.81
2024-02-27T08:49:49.261Z,157.82
2024-02-27T08:50:49.187Z,154.95
2024-02-27T08:51:49.287Z,157.26
2024-02-27T08:52:49.247Z,153.81
2024-02-27T08:53:49.747Z,155.56
2024-02-27T08:54:49.292Z,154.38
2024-02-27T08:55:49.340Z,148.12
2024-02-27T08:56:49.316Z,141.71
2024-02-27T08:57:49.370Z,140.22
2024-02-27T08:58:49.410Z,138.11
2024-02-27T08:59:49.470Z,133.67
2024-02-27T09:00:49.595Z,135.88
2024-02-27T09:01:49.440Z,129.21
2024-02-27T09:02:49.483Z,131.33
2024-02-27T09:03:49.788Z,134.37
2024-02-27T09:04:49.530Z,140.51
2024-02-27T09:05:49.578Z,146.30
2024-02-27T09:06:49.759Z,149.28
2024-02-27T09:07:49.678Z,152.44
2024-02-27T09:08:49.617Z,154.04
2024-02-27T09:09:49.726Z,153.07
2024-02-27T09:10:49.627Z,154.81
2024-02-27T09:11:49.648Z,156.56
2024-02-27T09:12:49.707Z,155.10
2024-02-27T09:13:49.763Z,155.81
2024-02-27T09:14:49.677Z,156.08
2024-02-27T09:15:49.856Z,154.99
2024-02-27T09:16:49.695Z,156.78
2024-02-27T09:17:50.024Z,159.13
2024-02-27T09:18:50.413Z,152.39
2024-02-27T09:19:50.010Z,150.25
2024-02-27T09:20:50.001Z,150.53
2024-02-27T09:21:50.030Z,150.04
2024-02-27T09:22:50.062Z,153.46
2024-02-27T09:23:50.183Z,154.48
2024-02-27T09:24:50.236Z,157.92
2024-02-27T09:25:50.282Z,156.54
2024-02-27T09:26:50.488Z,153.30
2024-02-27T09:27:50.550Z,148.37
2024-02-27T09:28:50.737Z,148.95
2024-02-27T09:29:50.608Z,200.00
2024-02-27T09:30:50.661Z,297.99
2024-02-27T09:31:50.761Z,260.18
2024-02-27T09:32:50.798Z,215.42
2024-02-27T09:33:50.967Z,188.61
2024-02-27T09:34:51.120Z,172.45
2024-02-27T09:35:50.887Z,241.09
2024-02-27T09:36:50.932Z,228.32
2024-02-27T09:37:50.927Z,204.62
2024-02-27T09:38:51.245Z,178.18
2024-02-27T09:39:58.050Z,162.03
2024-02-27T09:40:52.016Z,148.38
2024-02-27T09:41:51.075Z,134.98
2024-02-27T09:42:51.126Z,128.00
2024-02-27T09:43:51.347Z,123.04
2024-02-27T09:44:51.011Z,121.55
2024-02-27T09:45:51.111Z,116.65
2024-02-27T09:46:51.032Z,112.49
2024-02-27T09:47:51.208Z,107.47
2024-02-27T09:48:51.396Z,100.40
2024-02-27T09:49:51.081Z,97.49
2024-02-27T09:50:50.992Z,93.34
2024-02-27T09:51:51.007Z,88.07
2024-02-27T09:52:51.043Z,82.65
2024-02-27T09:53:51.230Z,80.21
2024-02-27T09:54:51.044Z,76.70
2024-02-27T09:55:51.105Z,71.95
2024-02-27T09:56:51.094Z,72.78
2024-02-27T09:57:51.505Z,70.57
2024-02-27T09:58:51.269Z,66.82
2024-02-27T09:59:51.167Z,62.76
2024-02-27T10:00:51.311Z,62.26
2024-02-27T10:01:51.429Z,60.21
2024-02-27T10:02:51.392Z,57.32
2024-02-27T10:03:51.825Z,57.08
2024-02-27T10:04:51.389Z,58.66
2024-02-27T10:05:51.474Z,57.73
2024-02-27T10:06:51.583Z,54.98
2024-02-27T10:07:51.624Z,54.73
2024-02-27T10:08:51.750Z,52.42
2024-02-27T10:09:51.564Z,51.46
2024-02-27T10:10:51.642Z,53.82
2024-02-27T10:11:51.597Z,54.47
2024-02-27T10:12:51.660Z,53.90
2024-02-27T10:13:51.758Z,57.93
2024-02-27T10:14:51.790Z,57.37
2024-02-27T10:15:51.808Z,58.29
2024-02-27T10:16:51.804Z,60.04
2024-02-27T10:17:51.944Z,61.28
2024-02-27T10:18:51.988Z,58.27
2024-02-27T10:19:51.920Z,58.76
2024-02-27T10:20:51.953Z,59.33
2024-02-27T10:21:51.936Z,55.34
2024-02-27T10:22:52.039Z,55.15
2024-02-27T10:23:52.306Z,55.04
2024-02-27T10:24:52.001Z,56.24
2024-02-27T10:25:51.956Z,57.63
2024-02-27T10:26:51.985Z,57.35
2024-02-27T10:27:51.979Z,53.64
2024-02-27T10:28:52.258Z,50.84
2024-02-27T10:29:52.039Z,50.00
2024-02-27T10:30:52.087Z,50.30
2024-02-27T10:31:52.127Z,50.22
2024-02-27T10:32:52.243Z,50.13
2024-02-27T10:33:52.339Z,50.62
2024-02-27T10:34:52.491Z,49.79
2024-02-27T10:35:52.328Z,50.86
2024-02-27T10:36:52.342Z,52.02
2024-02-27T10:37:52.363Z,52.46
2024-02-27T10:38:52.420Z,51.74
2024-02-27T10:39:52.391Z,50.35
2024-02-27T10:40:52.391Z,50.03
2024-02-27T10:41:52.429Z,50.61
2024-02-27T10:42:52.525Z,51.32
2024-02-27T10:43:55.390Z,51.65
2024-02-27T10:44:52.417Z,51.69
2024-02-27T10:45:52.490Z,51.32
2024-02-27T10:46:52.446Z,50.94
2024-02-27T10:47:52.510Z,49.30
2024-02-27T10:48:52.908Z,49.61
2024-02-27T10:49:52.472Z,87.82
2024-02-27T10:50:52.465Z,127.99
2024-02-27T10:51:52.461Z,110.05
2024-02-27T10:52:52.489Z,94.06
2024-02-27T10:53:52.480Z,77.38
2024-02-27T10:54:52.489Z,64.60
2024-02-27T10:55:52.469Z,56.55
2024-02-27T10:56:52.486Z,50.34
2024-02-27T10:57:52.540Z,50.06
2024-02-27T10:58:52.750Z,50.04
2024-02-27T10:59:52.510Z,49.74
2024-02-27T11:00:52.572Z,51.88
2024-02-27T11:01:52.541Z,53.90
2024-02-27T11:02:52.548Z,53.91
2024-02-27T11:03:52.526Z,53.38
2024-02-27T11:04:52.636Z,54.50
2024-02-27T11:05:52.619Z,55.93
2024-02-27T11:06:52.718Z,53.79
2024-02-27T11:07:52.613Z,53.37
2024-02-27T11:08:52.771Z,53.40
2024-02-27T11:09:52.810Z,51.74
2024-02-27T11:10:53.877Z,52.26
2024-02-27T11:11:52.887Z,54.16
2024-02-27T11:12:52.966Z,58.41
2024-02-27T11:13:53.283Z,162.25
2024-02-27T11:14:52.956Z,226.67
2024-02-27T11:15:53.032Z,224.38
2024-02-27T11:16:52.958Z,195.23
2024-02-27T11:17:53.021Z,169.05
2024-02-27T11:18:53.443Z,149.90
2024-02-27T11:19:53.185Z,133.92
2024-02-27T11:20:53.030Z,123.61
2024-02-27T11:21:53.125Z,116.73
2024-02-27T11:22:53.099Z,111.95
2024-02-27T11:23:53.274Z,110.96
2024-02-27T11:24:53.214Z,109.94
2024-02-27T11:25:53.285Z,102.74
2024-02-27T11:26:53.228Z,96.65
2024-02-27T11:27:53.250Z,92.55
2024-02-27T11:28:53.268Z,88.68
2024-02-27T11:29:53.350Z,86.91
2024-02-27T11:30:53.402Z,81.87
2024-02-27T11:31:54.289Z,79.82
2024-02-27T11:33:54.024Z,75.29
2024-02-27T11:34:53.779Z,73.29
2024-02-27T11:35:53.654Z,72.40
2024-02-27T11:36:53.762Z,69.80
2024-02-27T11:37:53.804Z,67.84
2024-02-27T11:39:16.944Z,66.80
2024-02-27T11:39:53.942Z,67.01
2024-02-27T11:40:54.260Z,68.30
2024-02-27T11:41:53.869Z,69.71
2024-02-27T11:42:53.901Z,70.86
2024-02-27T11:43:54.295Z,70.92
2024-02-27T11:44:53.869Z,69.85
2024-02-27T11:45:53.912Z,65.66
2024-02-27T11:46:53.879Z,62.83
2024-02-27T11:47:54.209Z,60.72
2024-02-27T11:48:54.062Z,61.89
2024-02-27T11:49:54.084Z,62.53
2024-02-27T11:50:54.061Z,60.60
2024-02-27T11:51:54.045Z,59.55
2024-02-27T11:52:54.079Z,52.86
2024-02-27T11:53:54.138Z,50.00
2024-02-27T11:54:54.249Z,50.00
2024-02-27T11:55:54.201Z,51.91
2024-02-27T11:56:54.226Z,51.28
2024-02-27T11:57:54.230Z,51.42
2024-02-27T11:58:54.286Z,50.71
2024-02-27T11:59:54.229Z,50.99
2024-02-27T12:00:54.409Z,50.64
2024-02-27T12:01:55.903Z,54.56
2024-02-27T12:02:54.257Z,54.36
2024-02-27T12:03:54.340Z,54.64
2024-02-27T12:04:54.356Z,49.89
2024-02-27T12:05:54.272Z,49.85
2024-02-27T12:06:54.288Z,50.29
2024-02-27T12:07:54.267Z,50.00
2024-02-27T12:08:54.294Z,51.46
2024-02-27T12:09:54.347Z,50.63
2024-02-27T12:10:54.285Z,50.77
2024-02-27T12:11:54.276Z,50.72
2024-02-27T12:12:54.340Z,51.75
2024-02-27T12:13:54.282Z,55.13
2024-02-27T12:14:54.278Z,55.20
2024-02-27T12:15:54.351Z,57.69
2024-02-27T12:16:54.291Z,57.46
2024-02-27T12:17:54.499Z,56.57
2024-02-27T12:18:54.437Z,54.54
2024-02-27T12:19:54.513Z,53.27
2024-02-27T12:20:54.335Z,52.41
2024-02-27T12:21:54.442Z,54.95
2024-02-27T12:22:54.276Z,57.00
2024-02-27T12:23:55.365Z,57.01
2024-02-27T12:24:54.407Z,57.25
2024-02-27T12:25:54.332Z,57.13
2024-02-27T12:26:54.297Z,54.34
2024-02-27T12:27:54.370Z,50.12
2024-02-27T12:28:54.831Z,50.24
2024-02-27T12:29:54.323Z,49.93
2024-02-27T12:30:54.368Z,50.00
2024-02-27T12:31:54.368Z,51.15
2024-02-27T12:32:54.368Z,51.30
2024-02-27T12:33:54.983Z,50.83
2024-02-27T12:34:54.354Z,52.31
2024-02-27T12:35:54.407Z,51.49
2024-02-27T12:36:54.608Z,50.00
2024-02-27T12:37:54.524Z,51.78